createdAt,value
2022-09-02T00:01:25.864Z,54.60
2022-09-02T00:03:56.861Z,54.60
2022-09-02T00:06:24.804Z,54.50
2022-09-02T00:08:54.126Z,54.60
2022-09-02T00:11:25.642Z,54.60
2022-09-02T00:13:55.048Z,54.60
2022-09-02T00:16:25.745Z,54.70
2022-09-02T00:18:57.323Z,54.70
2022-09-02T00:21:25.571Z,54.40
2022-09-02T00:23:57.540Z,53.90
2022-09-02T00:26:24.715Z,53.60
2022-09-02T00:28:55.857Z,53.30
2022-09-02T00:31:25.008Z,52.90
2022-09-02T00:33:52.038Z,52.60
2022-09-02T00:36:19.195Z,52.30
2022-09-02T00:38:48.704Z,52.10
2022-09-02T00:41:21.315Z,51.80
2022-09-02T00:43:56.098Z,51.60
2022-09-02T00:46:25.484Z,51.30
2022-09-02T00:49:12.670Z,51.20
2022-09-02T00:52:09.881Z,50.80
2022-09-02T00:54:45.502Z,50.70
2022-09-02T00:57:22.269Z,50.50
2022-09-02T01:00:24.172Z,50.40
2022-09-02T01:02:55.213Z,50.40
2022-09-02T01:05:26.674Z,50.50
2022-09-02T01:07:54.891Z,50.40
2022-09-02T01:10:25.491Z,50.40
2022-09-02T01:12:57.513Z,50.40
2022-09-02T01:15:25.144Z,50.20
2022-09-02T01:17:55.163Z,50.00
2022-09-02T01:20:25.804Z,49.70
2022-09-02T01:22:57.382Z,49.70
2022-09-02T01:25:32.073Z,49.60
2022-09-02T01:28:05.055Z,49.40
2022-09-02T01:30:35.366Z,49.50
2022-09-02T01:33:04.637Z,49.70
2022-09-02T01:35:31.737Z,49.80
2022-09-02T01:37:59.639Z,49.60
2022-09-02T01:40:31.327Z,49.90
2022-09-02T01:43:02.272Z,49.90
2022-09-02T01:45:30.197Z,50.30
2022-09-02T01:47:59.183Z,50.20
2022-09-02T01:50:28.512Z,50.30
2022-09-02T01:52:57.635Z,50.20
2022-09-02T01:55:26.559Z,50.20
2022-09-02T01:57:56.012Z,50.30
2022-09-02T02:00:25.555Z,50.40
2022-09-02T02:02:52.918Z,50.40
2022-09-02T02:05:22.495Z,50.50
2022-09-02T02:07:49.686Z,50.50
2022-09-02T02:10:19.479Z,50.60
2022-09-02T02:12:46.494Z,50.80
2022-09-02T02:15:19.769Z,50.80
2022-09-02T02:17:46.729Z,50.90
2022-09-02T02:20:18.014Z,50.90
2022-09-02T02:22:45.966Z,51.00
2022-09-02T02:25:15.730Z,51.10
2022-09-02T02:27:43.775Z,51.40
2022-09-02T02:30:15.743Z,51.50
2022-09-02T02:32:47.210Z,51.80
2022-09-02T02:35:19.150Z,51.90
2022-09-02T02:37:49.226Z,52.10
2022-09-02T02:40:22.099Z,52.10
2022-09-02T02:42:50.395Z,52.40
2022-09-02T02:45:17.170Z,52.70
2022-09-02T02:47:47.200Z,53.00
2022-09-02T02:50:18.385Z,53.10
2022-09-02T02:52:48.781Z,53.30
2022-09-02T02:55:17.102Z,53.70
2022-09-02T02:57:44.424Z,54.00
2022-09-02T03:00:14.426Z,54.50
2022-09-02T03:02:41.600Z,54.40
2022-09-02T03:05:10.083Z,54.50
2022-09-02T03:07:37.086Z,54.90
2022-09-02T03:10:08.232Z,55.20
2022-09-02T03:12:36.278Z,55.40
2022-09-02T03:15:06.069Z,55.70
2022-09-02T03:17:36.078Z,56.00
2022-09-02T03:20:03.816Z,56.30
2022-09-02T03:22:30.679Z,56.50
2022-09-02T03:24:59.953Z,57.00
2022-09-02T03:27:26.804Z,57.40
2022-09-02T03:29:58.868Z,57.80
2022-09-02T03:32:26.332Z,58.20
2022-09-02T03:35:00.542Z,58.70
2022-09-02T03:37:29.930Z,58.70
2022-09-02T03:39:56.726Z,58.90
2022-09-02T03:42:23.602Z,59.10
2022-09-02T03:44:55.054Z,59.30
2022-09-02T03:47:24.564Z,59.70
2022-09-02T03:49:51.842Z,59.80
2022-09-02T03:52:18.729Z,60.70
2022-09-02T03:54:45.850Z,60.00
2022-09-02T03:57:15.494Z,60.10
2022-09-02T03:59:42.536Z,60.30
2022-09-02T04:02:09.542Z,60.50
2022-09-02T04:04:36.713Z,60.70
2022-09-02T04:07:05.822Z,60.60
2022-09-02T04:09:32.617Z,60.70
2022-09-02T04:12:02.843Z,61.00
2022-09-02T04:14:31.760Z,60.80
2022-09-02T04:16:58.668Z,60.90
2022-09-02T04:19:25.593Z,60.60
2022-09-02T04:21:52.395Z,60.40
2022-09-02T04:24:19.174Z,60.00
2022-09-02T04:26:48.316Z,59.90
2022-09-02T04:29:20.403Z,59.70
2022-09-02T04:31:50.235Z,59.20
2022-09-02T04:34:19.186Z,59.10
2022-09-02T04:36:46.418Z,58.90
2022-09-02T04:39:13.691Z,58.60
2022-09-02T04:41:43.037Z,58.40
2022-09-02T04:44:09.863Z,58.30
2022-09-02T04:46:39.084Z,57.50
2022-09-02T04:49:06.215Z,57.30
2022-09-02T04:51:33.565Z,57.10
2022-09-02T04:54:01.467Z,57.00
2022-09-02T04:56:30.983Z,57.20
2022-09-02T04:58:57.909Z,57.40
2022-09-02T05:01:30.442Z,57.80
2022-09-02T05:03:57.393Z,57.90
2022-09-02T05:06:27.260Z,58.10
2022-09-02T05:08:59.401Z,58.20
2022-09-02T05:11:31.835Z,58.60
2022-09-02T05:14:03.083Z,58.50
2022-09-02T05:16:32.768Z,58.40
2022-09-02T05:19:00.225Z,58.90
2022-09-02T05:21:27.237Z,58.00
2022-09-02T05:23:54.581Z,57.40
2022-09-02T05:26:22.631Z,57.00
2022-09-02T05:28:50.609Z,56.50
2022-09-02T05:31:19.562Z,55.90
2022-09-02T05:33:46.687Z,55.00
2022-09-02T05:36:23.982Z,55.10
2022-09-02T05:38:53.367Z,54.50
2022-09-02T05:41:26.773Z,54.20
2022-09-02T05:43:56.775Z,54.20
2022-09-02T05:46:26.866Z,54.30
2022-09-02T05:49:06.800Z,54.40
2022-09-02T05:51:58.922Z,54.30
2022-09-02T05:54:34.537Z,54.60
2022-09-02T05:57:04.817Z,54.60
2022-09-02T05:59:37.010Z,54.30
2022-09-02T06:02:06.375Z,53.80
2022-09-02T06:04:38.768Z,53.40
2022-09-02T06:07:06.031Z,53.20
2022-09-02T06:09:33.093Z,52.70
2022-09-02T06:12:05.141Z,52.40
2022-09-02T06:14:38.132Z,51.90
2022-09-02T06:17:05.985Z,51.10
2022-09-02T06:19:34.102Z,50.80
2022-09-02T06:22:02.170Z,50.00
2022-09-02T06:24:32.942Z,49.60
2022-09-02T06:27:07.272Z,49.30
2022-09-02T06:29:34.848Z,49.00
2022-09-02T06:32:04.249Z,49.30
2022-09-02T06:34:31.269Z,49.40
2022-09-02T06:37:00.430Z,49.70
2022-09-02T06:39:28.769Z,49.90
2022-09-02T06:41:56.051Z,50.20
2022-09-02T06:44:23.121Z,50.20
2022-09-02T06:47:02.740Z,50.00
2022-09-02T06:49:29.831Z,49.80
2022-09-02T06:51:57.080Z,49.70
2022-09-02T06:54:24.730Z,49.70
2022-09-02T06:56:52.262Z,49.80
2022-09-02T06:59:21.098Z,50.00
2022-09-02T07:01:50.571Z,50.10
2022-09-02T07:04:36.769Z,51.10
2022-09-02T07:07:06.079Z,51.20
2022-09-02T07:09:35.577Z,51.80
2022-09-02T07:12:05.747Z,52.10
2022-09-02T07:14:38.065Z,52.40
2022-09-02T07:17:05.182Z,52.60
2022-09-02T07:19:32.089Z,53.20
2022-09-02T07:21:58.899Z,53.20
2022-09-02T07:24:28.214Z,53.30
2022-09-02T07:26:55.803Z,53.30
2022-09-02T07:29:31.059Z,53.30
2022-09-02T07:32:00.489Z,53.50
2022-09-02T07:34:27.297Z,54.30
2022-09-02T07:36:54.871Z,53.90
2022-09-02T07:39:23.695Z,53.90
2022-09-02T07:41:52.037Z,53.80
2022-09-02T07:44:21.775Z,53.60
2022-09-02T07:46:48.659Z,53.60
2022-09-02T07:49:18.113Z,53.70
2022-09-02T07:51:51.329Z,53.20
2022-09-02T07:54:23.777Z,53.00
2022-09-02T07:56:53.061Z,53.40
2022-09-02T07:59:22.535Z,52.80
2022-09-02T08:01:49.735Z,52.40
2022-09-02T08:04:18.800Z,52.20
2022-09-02T08:06:45.725Z,52.80
2022-09-02T08:09:12.835Z,52.90
2022-09-02T08:11:42.468Z,52.10
2022-09-02T08:14:12.615Z,51.90
2022-09-02T08:16:42.585Z,51.40
2022-09-02T08:19:09.467Z,51.00
2022-09-02T08:21:38.801Z,50.70
2022-09-02T08:24:05.688Z,50.30
2022-09-02T08:26:37.067Z,50.20
2022-09-02T08:29:07.437Z,50.00
2022-09-02T08:31:36.397Z,49.50
2022-09-02T08:34:05.743Z,49.70
2022-09-02T08:36:32.620Z,50.00
2022-09-02T08:39:02.899Z,50.40
2022-09-02T08:42:13.094Z,51.00
2022-09-02T08:44:41.130Z,50.70
2022-09-02T08:47:18.674Z,50.70
2022-09-02T08:49:52.616Z,50.90
2022-09-02T08:52:49.241Z,50.40
2022-09-02T08:55:22.414Z,49.80
2022-09-02T08:57:49.744Z,49.90
2022-09-02T09:00:17.383Z,50.00
2022-09-02T09:02:56.637Z,49.70
2022-09-02T09:05:47.869Z,49.60
2022-09-02T09:08:28.391Z,48.60
2022-09-02T09:11:18.936Z,47.20
2022-09-02T09:13:58.566Z,46.30
2022-09-02T09:16:54.688Z,45.60
2022-09-02T09:19:27.486Z,45.70
2022-09-02T09:21:55.822Z,44.90
2022-09-02T09:24:41.771Z,44.40
2022-09-02T09:27:28.831Z,43.90
2022-09-02T09:29:59.311Z,42.50
2022-09-02T09:32:39.828Z,41.50
2022-09-02T09:35:08.152Z,40.80
2022-09-02T09:37:42.353Z,39.90
2022-09-02T09:40:24.163Z,40.40
2022-09-02T09:43:05.942Z,40.70
2022-09-02T09:45:45.668Z,40.70
2022-09-02T09:48:30.721Z,40.20
2022-09-02T09:50:57.568Z,39.50
2022-09-02T09:53:24.665Z,40.00
2022-09-02T09:56:06.631Z,38.40
2022-09-02T09:58:33.372Z,38.00
2022-09-02T10:01:18.405Z,38.00
2022-09-02T10:04:43.226Z,37.70
2022-09-02T10:07:13.981Z,37.80
2022-09-02T10:09:41.303Z,37.90
2022-09-02T10:12:12.563Z,37.30
2022-09-02T10:14:49.031Z,36.40
2022-09-02T10:17:27.751Z,35.80
2022-09-02T10:20:27.444Z,35.80
2022-09-02T10:23:11.067Z,34.70
2022-09-02T10:25:55.836Z,34.60
2022-09-02T10:28:37.384Z,34.00
2022-09-02T10:31:31.725Z,33.10
2022-09-02T10:34:09.422Z,31.90
2022-09-02T10:37:01.287Z,31.40
2022-09-02T10:40:08.731Z,30.70
2022-09-02T10:42:54.487Z,30.20
2022-09-02T10:45:46.689Z,30.30
2022-09-02T10:48:26.098Z,29.50
2022-09-02T10:51:37.371Z,29.40
2022-09-02T10:54:13.615Z,28.00
2022-09-02T10:57:01.604Z,27.30
2022-09-02T11:00:13.193Z,26.70
2022-09-02T11:03:07.109Z,26.00
2022-09-02T11:05:51.847Z,26.20
2022-09-02T11:08:50.806Z,25.20
2022-09-02T11:11:38.745Z,24.20
2022-09-02T11:14:23.412Z,24.60
2022-09-02T11:16:57.286Z,22.90
2022-09-02T11:19:24.501Z,22.50
2022-09-02T11:22:03.564Z,22.90
2022-09-02T11:24:33.287Z,23.20
2022-09-02T11:27:45.116Z,23.40
2022-09-02T11:30:13.697Z,23.10
2022-09-02T11:32:46.596Z,22.40
2022-09-02T11:35:20.472Z,22.20
2022-09-02T11:38:01.753Z,22.30
2022-09-02T11:41:32.129Z,22.80
2022-09-02T11:43:49.535Z,22.40
2022-09-02T11:46:36.739Z,22.30
2022-09-02T11:49:22.445Z,21.30
2022-09-02T11:52:01.273Z,22.20
2022-09-02T11:54:39.401Z,21.50
2022-09-02T11:57:07.607Z,21.30
2022-09-02T11:59:52.696Z,21.30
2022-09-02T12:02:31.543Z,21.40
2022-09-02T12:05:31.008Z,21.60
2022-09-02T12:08:04.546Z,21.50
2022-09-02T12:10:43.683Z,21.50
2022-09-02T12:13:31.605Z,22.00
2022-09-02T12:16:21.215Z,21.90
2022-09-02T12:18:54.196Z,21.30
2022-09-02T12:21:23.455Z,20.50
2022-09-02T12:23:56.314Z,20.10
2022-09-02T12:26:24.771Z,20.00
2022-09-02T12:28:54.089Z,19.70
2022-09-02T12:31:43.287Z,19.50
2022-09-02T12:34:24.771Z,19.50
2022-09-02T12:37:00.112Z,18.30
2022-09-02T12:39:30.315Z,16.20
2022-09-02T12:42:10.266Z,13.30
2022-09-02T12:45:28.191Z,10.80
2022-09-02T12:48:12.087Z,11.60
2022-09-02T12:50:45.412Z,12.70
2022-09-02T12:53:49.108Z,13.40
2022-09-02T12:56:16.233Z,13.50
2022-09-02T12:59:02.269Z,13.70
2022-09-02T13:01:38.237Z,9.90
2022-09-02T13:04:26.324Z,1.00
2022-09-02T13:07:05.199Z,1.00
2022-09-02T13:09:49.944Z,1.00
2022-09-02T13:13:05.348Z,3.10
2022-09-02T13:16:19.079Z,5.40
2022-09-02T13:19:16.865Z,8.20
2022-09-02T13:21:58.743Z,1.00
2022-09-02T13:25:03.000Z,1.00
2022-09-02T13:27:55.197Z,1.00
2022-09-02T13:30:46.783Z,1.00
2022-09-02T13:33:14.472Z,1.00
2022-09-02T13:35:44.469Z,1.00
2022-09-02T13:38:13.329Z,1.00
2022-09-02T13:40:43.880Z,1.00
2022-09-02T13:43:16.202Z,1.00
2022-09-02T13:45:43.914Z,1.00
2022-09-02T13:48:22.917Z,1.00
2022-09-02T13:50:58.109Z,1.00
2022-09-02T13:53:58.936Z,1.00
2022-09-02T13:56:25.250Z,1.00
2022-09-02T13:58:56.872Z,1.20
2022-09-02T14:01:35.841Z,2.10
2022-09-02T14:04:11.423Z,3.10
2022-09-02T14:06:42.353Z,1.00
2022-09-02T14:09:22.813Z,1.00
2022-09-02T14:11:52.986Z,1.00
2022-09-02T14:14:24.870Z,1.00
2022-09-02T14:16:52.700Z,1.00
2022-09-02T14:19:22.511Z,1.00
2022-09-02T14:21:57.655Z,1.00
2022-09-02T14:24:29.810Z,1.00
2022-09-02T14:26:58.806Z,1.00
2022-09-02T14:29:28.343Z,1.00
2022-09-02T14:32:28.068Z,1.00
2022-09-02T14:35:19.847Z,1.00
2022-09-02T14:37:53.130Z,1.00
2022-09-02T14:40:33.185Z,1.00
2022-09-02T14:43:00.786Z,1.00
2022-09-02T14:45:29.374Z,1.00
2022-09-02T14:47:59.210Z,1.00
2022-09-02T14:50:32.740Z,1.00
2022-09-02T14:53:07.734Z,1.00
2022-09-02T14:55:54.173Z,1.00
2022-09-02T14:58:24.851Z,1.00
2022-09-02T15:00:56.660Z,2.50
2022-09-02T15:03:24.140Z,3.60
2022-09-02T15:05:52.257Z,5.70
2022-09-02T15:08:19.501Z,7.10
2022-09-02T15:10:49.861Z,7.20
2022-09-02T15:13:46.392Z,1.00
2022-09-02T15:16:13.191Z,1.00
2022-09-02T15:18:39.944Z,1.80
2022-09-02T15:21:09.854Z,3.70
2022-09-02T15:23:41.215Z,6.10
2022-09-02T15:26:08.708Z,7.30
2022-09-02T15:28:35.936Z,7.40
2022-09-02T15:31:02.907Z,7.90
2022-09-02T15:33:30.408Z,8.20
2022-09-02T15:36:09.016Z,8.90
2022-09-02T15:38:37.647Z,9.00
2022-09-02T15:41:19.542Z,9.00
2022-09-02T15:43:51.332Z,10.00
2022-09-02T15:46:27.451Z,10.60
2022-09-02T15:49:00.213Z,11.30
2022-09-02T15:51:31.684Z,11.70
2022-09-02T15:54:06.770Z,12.60
2022-09-02T15:56:38.550Z,12.00
2022-09-02T15:59:11.279Z,12.80
2022-09-02T16:01:40.687Z,12.60
2022-09-02T16:04:13.448Z,12.70
2022-09-02T16:06:43.015Z,12.60
2022-09-02T16:09:13.206Z,13.00
2022-09-02T16:11:44.763Z,13.10
2022-09-02T16:14:11.941Z,13.90
2022-09-02T16:16:39.609Z,14.50
2022-09-02T16:19:07.479Z,14.10
2022-09-02T16:21:41.167Z,14.50
2022-09-02T16:24:09.071Z,14.40
2022-09-02T16:26:38.612Z,14.50
2022-09-02T16:29:08.141Z,15.30
2022-09-02T16:31:38.319Z,16.20
2022-09-02T16:34:13.341Z,16.60
2022-09-02T16:36:42.623Z,17.70
2022-09-02T16:39:12.050Z,17.40
2022-09-02T16:41:44.032Z,18.30
2022-09-02T16:44:15.910Z,19.70
2022-09-02T16:46:46.516Z,19.70
2022-09-02T16:49:18.386Z,20.10
2022-09-02T16:51:50.695Z,20.20
2022-09-02T16:54:32.442Z,21.10
2022-09-02T16:57:04.149Z,20.90
2022-09-02T16:59:31.615Z,21.20
2022-09-02T17:01:58.785Z,21.50
2022-09-02T17:04:25.762Z,22.60
2022-09-02T17:06:52.654Z,21.90
2022-09-02T17:09:22.552Z,22.20
2022-09-02T17:11:52.628Z,22.30
2022-09-02T17:14:21.699Z,22.20
2022-09-02T17:16:50.957Z,22.60
2022-09-02T17:19:22.733Z,23.20
2022-09-02T17:21:54.035Z,23.10
2022-09-02T17:24:23.645Z,23.30
2022-09-02T17:26:52.507Z,23.30
2022-09-02T17:29:47.546Z,23.90
2022-09-02T17:32:11.003Z,24.10
2022-09-02T17:34:40.277Z,24.80
2022-09-02T17:37:08.102Z,24.80
2022-09-02T17:39:35.165Z,24.80
2022-09-02T17:42:03.363Z,25.20
2022-09-02T17:44:39.786Z,25.60
2022-09-02T17:47:08.006Z,25.60
2022-09-02T17:49:38.707Z,25.80
2022-09-02T17:52:07.997Z,26.20
2022-09-02T17:54:38.654Z,26.60
2022-09-02T17:57:17.534Z,26.20
2022-09-02T18:00:00.489Z,26.50
2022-09-02T18:02:36.381Z,26.80
2022-09-02T18:05:36.126Z,26.50
2022-09-02T18:08:11.683Z,26.60
2022-09-02T18:10:57.466Z,26.80
2022-09-02T18:13:42.996Z,26.90
2022-09-02T18:16:30.085Z,27.00
2022-09-02T18:19:36.496Z,27.60
2022-09-02T18:22:26.844Z,28.10
2022-09-02T18:24:59.061Z,28.40
2022-09-02T18:27:36.265Z,28.90
2022-09-02T18:30:49.772Z,29.10
2022-09-02T18:33:45.942Z,29.50
2022-09-02T18:36:26.208Z,29.80
2022-09-02T18:39:21.582Z,30.40
2022-09-02T18:42:00.514Z,30.40
2022-09-02T18:44:45.767Z,31.10
2022-09-02T18:47:20.766Z,30.80
2022-09-02T18:49:53.664Z,31.10
2022-09-02T18:52:26.343Z,31.10
2022-09-02T18:55:15.721Z,31.40
2022-09-02T18:57:57.379Z,31.50
2022-09-02T19:00:28.318Z,31.70
2022-09-02T19:03:05.744Z,31.90
2022-09-02T19:05:36.134Z,31.90
2022-09-02T19:08:34.092Z,32.30
2022-09-02T19:11:08.089Z,32.30
2022-09-02T19:13:47.663Z,32.30
2022-09-02T19:16:26.921Z,32.90
2022-09-02T19:18:56.787Z,33.30
2022-09-02T19:21:48.117Z,32.30
2022-09-02T19:24:24.717Z,33.10
2022-09-02T19:26:57.121Z,32.70
2022-09-02T19:29:24.516Z,32.80
2022-09-02T19:31:54.732Z,33.20
2022-09-02T19:34:22.847Z,33.70
2022-09-02T19:36:52.653Z,34.00
2022-09-02T19:39:21.772Z,34.00
2022-09-02T19:41:49.032Z,33.90
2022-09-02T19:44:17.465Z,33.70
2022-09-02T19:49:35.672Z,34.60
2022-09-02T19:52:07.926Z,34.50
2022-09-02T19:54:37.581Z,35.00
2022-09-02T19:57:04.385Z,35.00
2022-09-02T19:59:33.693Z,35.00
2022-09-02T20:02:03.456Z,35.00
2022-09-02T20:04:33.229Z,35.00
2022-09-02T20:07:02.291Z,35.00
2022-09-02T20:09:29.576Z,35.00
2022-09-02T20:11:59.144Z,35.30
2022-09-02T20:14:26.407Z,35.00
2022-09-02T20:17:00.498Z,34.90
2022-09-02T20:19:28.055Z,34.90
2022-09-02T20:21:54.871Z,34.90
2022-09-02T20:24:27.308Z,34.90
2022-09-02T20:27:30.949Z,34.90
2022-09-02T20:30:12.949Z,35.90
2022-09-02T20:32:55.103Z,35.90
2022-09-02T20:35:44.018Z,36.10
2022-09-02T20:38:32.571Z,35.90
2022-09-02T20:41:17.811Z,36.00
2022-09-02T20:44:14.915Z,36.00
2022-09-02T20:47:02.879Z,35.70
2022-09-02T20:50:02.122Z,36.10
2022-09-02T20:52:35.901Z,35.80
2022-09-02T20:55:15.858Z,35.90
2022-09-02T20:58:14.583Z,36.00
2022-09-02T21:00:50.875Z,35.90
2022-09-02T21:03:24.801Z,35.60
2022-09-02T21:06:02.249Z,35.00
2022-09-02T21:08:39.051Z,35.90
2022-09-02T21:11:14.794Z,36.10
2022-09-02T21:13:58.821Z,36.30
2022-09-02T21:16:37.588Z,36.10
2022-09-02T21:19:35.104Z,36.30
2022-09-02T21:22:26.292Z,37.30
2022-09-02T21:25:03.593Z,36.90
2022-09-02T21:27:37.371Z,37.00
2022-09-02T21:30:09.667Z,36.70
2022-09-02T21:32:36.498Z,37.20
2022-09-02T21:35:11.031Z,37.30
2022-09-02T21:37:40.194Z,37.70
2022-09-02T21:40:11.558Z,37.80
2022-09-02T21:42:57.281Z,37.90
2022-09-02T21:45:47.527Z,37.80
2022-09-02T21:48:15.077Z,38.70
2022-09-02T21:50:50.461Z,38.50
2022-09-02T21:53:44.881Z,39.30
2022-09-02T21:56:20.577Z,38.70
2022-09-02T21:59:03.542Z,39.20
2022-09-02T22:01:44.960Z,38.70
2022-09-02T22:05:00.350Z,39.20
2022-09-02T22:07:42.206Z,39.30
2022-09-02T22:10:17.037Z,39.40
2022-09-02T22:12:51.910Z,39.80
2022-09-02T22:15:33.391Z,39.60
2022-09-02T22:18:19.243Z,39.80
2022-09-02T22:20:51.418Z,40.30
2022-09-02T22:23:26.300Z,40.40
2022-09-02T22:25:57.436Z,40.20
2022-09-02T22:28:35.209Z,40.40
2022-09-02T22:31:06.888Z,40.80
2022-09-02T22:33:37.692Z,40.40
2022-09-02T22:36:09.651Z,40.00
2022-09-02T22:38:47.056Z,40.10
2022-09-02T22:41:24.652Z,40.30
2022-09-02T22:44:11.692Z,40.70
2022-09-02T22:47:27.968Z,40.60
2022-09-02T22:50:18.726Z,40.00
2022-09-02T22:52:45.831Z,40.80
2022-09-02T22:55:22.448Z,40.80
2022-09-02T22:57:56.305Z,41.10
2022-09-02T23:00:25.821Z,40.70
2022-09-02T23:03:18.239Z,41.00
2022-09-02T23:06:04.825Z,41.20
2022-09-02T23:08:36.966Z,41.20
2022-09-02T23:11:11.938Z,41.20
2022-09-02T23:13:47.640Z,40.70
2022-09-02T23:16:22.242Z,40.60
2022-09-02T23:19:34.766Z,41.20
2022-09-02T23:22:43.382Z,41.50
2022-09-02T23:25:40.627Z,41.50
2022-09-02T23:28:40.364Z,41.20
2022-09-02T23:31:31.081Z,41.20
2022-09-02T23:34:30.557Z,41.40
2022-09-02T23:37:25.103Z,41.70
2022-09-02T23:40:25.933Z,41.60
2022-09-02T23:42:53.233Z,41.80
2022-09-02T23:45:29.746Z,41.50
2022-09-02T23:48:21.352Z,41.30
2022-09-02T23:50:57.797Z,41.40
2022-09-02T23:53:55.582Z,41.60
2022-09-02T23:57:00.918Z,41.00
2022-09-02T23:59:52.883Z,41.30
